Time;durP1;ratioP1;P1;durP2;ratioP2;P2;SDS_P1;SDS_P2;PMS_P1;PMS_P2;Temp;Humidity;BMP_temperature;BMP_pressure;BME280_temperature;BME280_humidity;BME280_pressure;Samples;Min_cycle;Max_cycle;Signal;HPM_P1;HPM_P2
2023/02/06 00:01:50;;;;;;;28.07;18.93;;;;;;;1.40;100.00;151726.63;4971181;28;20967;-86
2023/02/06 00:04:17;;;;;;;40.27;21.77;;;;;;;1.45;100.00;151739.47;4977510;28;20742;-86
2023/02/06 00:06:44;;;;;;;30.07;19.73;;;;;;;1.43;100.00;151734.34;4975283;28;20479;-86
2023/02/06 00:09:11;;;;;;;33.33;19.73;;;;;;;1.41;100.00;151730.47;4964134;28;20544;-86
2023/02/06 00:11:38;;;;;;;32.60;19.43;;;;;;;1.47;100.00;151744.59;4972305;28;20447;-86
2023/02/06 00:14:05;;;;;;;30.70;20.03;;;;;;;1.41;100.00;151729.16;4970330;28;20468;-86
2023/02/06 00:16:34;;;;;;;32.63;21.00;;;;;;;1.39;100.00;151724.03;4979154;28;20430;-86
2023/02/06 00:19:01;;;;;;;29.30;18.93;;;;;;;1.39;100.00;151724.03;4982242;28;20488;-86
2023/02/06 00:21:29;;;;;;;31.77;20.40;;;;;;;1.41;100.00;151729.16;4964492;28;20455;-87
2023/02/06 00:23:58;;;;;;;33.70;20.50;;;;;;;1.45;100.00;151739.47;4941419;28;20544;-86
2023/02/06 00:26:24;;;;;;;30.50;20.13;;;;;;;1.39;100.00;151725.34;4985775;28;20487;-86
2023/02/06 00:28:51;;;;;;;31.53;18.90;;;;;;;1.38;100.00;151722.75;4973213;28;20583;-86
2023/02/06 00:31:18;;;;;;;33.00;20.93;;;;;;;1.42;100.00;151731.75;4968537;28;20871;-86
2023/02/06 00:33:47;;;;;;;33.70;21.43;;;;;;;1.45;100.00;151739.47;4966710;28;20475;-86
2023/02/06 00:36:13;;;;;;;34.80;21.00;;;;;;;1.42;100.00;151733.06;4986539;28;20451;-86
2023/02/06 00:38:40;;;;;;;34.03;19.60;;;;;;;1.39;100.00;151725.34;4986134;28;20506;-86
2023/02/06 00:41:07;;;;;;;37.20;23.20;;;;;;;1.40;100.00;151726.63;4984032;28;20456;-86
2023/02/06 00:43:34;;;;;;;37.33;21.43;;;;;;;1.42;100.00;151731.75;4981899;28;20953;-86
2023/02/06 00:46:00;;;;;;;38.53;21.30;;;;;;;1.43;100.00;151735.59;4979003;28;20459;-86
2023/02/06 00:48:27;;;;;;;39.33;24.53;;;;;;;1.43;100.00;151734.34;4992150;28;20743;-87
2023/02/06 00:50:55;;;;;;;29.10;21.27;;;;;;;1.42;100.00;151733.06;5006028;28;20456;-86
2023/02/06 00:53:22;;;;;;;48.70;22.70;;;;;;;1.46;100.00;151742.00;4994051;28;20483;-86
2023/02/06 00:55:49;;;;;;;52.43;23.40;;;;;;;1.46;100.00;151742.00;4984590;28;20452;-86
2023/02/06 00:58:15;;;;;;;41.73;23.30;;;;;;;1.42;100.00;151731.75;4992669;28;20488;-86
2023/02/06 01:00:43;;;;;;;49.80;24.40;;;;;;;1.39;100.00;151724.03;5004880;28;20438;-86
2023/02/06 01:03:10;;;;;;;88.80;27.60;;;;;;;1.46;100.00;151742.00;4998207;28;20451;-85
2023/02/06 01:05:37;;;;;;;63.07;26.00;;;;;;;1.45;100.00;151739.47;5003435;28;20458;-86
2023/02/06 01:08:05;;;;;;;74.00;26.97;;;;;;;1.41;100.00;151730.47;4984249;28;20488;-84
2023/02/06 01:10:31;;;;;;;63.00;25.77;;;;;;;1.40;100.00;151726.63;4998583;28;20441;-86
2023/02/06 01:12:58;;;;;;;120.90;34.23;;;;;;;1.35;100.00;151713.78;4965091;28;20451;-87
2023/02/06 01:15:25;;;;;;;99.63;31.97;;;;;;;1.41;100.00;151730.47;4978423;28;20807;-86
2023/02/06 01:17:52;;;;;;;65.07;26.37;;;;;;;1.38;100.00;151722.75;4981541;28;20555;-86
2023/02/06 01:20:20;;;;;;;39.50;24.07;;;;;;;1.43;100.00;151734.34;4972669;28;20520;-86
2023/02/06 01:22:47;;;;;;;49.40;24.00;;;;;;;1.36;100.00;151716.31;4985828;28;20566;-86
2023/02/06 01:25:15;;;;;;;43.27;24.00;;;;;;;1.40;100.00;151726.63;4980478;28;20467;-87
2023/02/06 01:27:41;;;;;;;34.20;21.20;;;;;;;1.33;100.00;151708.63;4975281;28;20578;-86
2023/02/06 01:30:10;;;;;;;40.63;21.70;;;;;;;1.40;100.00;151727.94;4985529;28;20458;-86
2023/02/06 01:32:37;;;;;;;35.27;23.37;;;;;;;1.44;100.00;151738.19;4986702;28;20484;-86
2023/02/06 01:35:05;;;;;;;33.63;22.37;;;;;;;1.42;100.00;151733.06;4998256;28;20564;-86
2023/02/06 01:37:32;;;;;;;42.00;22.60;;;;;;;1.39;100.00;151725.34;4991284;28;20459;-86
2023/02/06 01:40:00;;;;;;;40.73;23.10;;;;;;;1.43;100.00;151735.59;4978609;28;20464;-87
2023/02/06 01:42:28;;;;;;;40.80;24.87;;;;;;;1.44;100.00;151736.88;4990708;28;20527;-86
2023/02/06 01:45:28;;;;;;;38.40;22.93;;;;;;;1.41;100.00;151729.16;5002515;28;20454;-86
2023/02/06 01:47:56;;;;;;;39.40;24.17;;;;;;;1.48;100.00;151747.19;4990416;28;20478;-86
2023/02/06 01:50:23;;;;;;;46.07;22.63;;;;;;;1.48;100.00;151748.50;4980193;28;20454;-86
2023/02/06 01:52:50;;;;;;;38.50;21.97;;;;;;;1.41;100.00;151729.16;4986016;28;20446;-86
2023/02/06 01:55:17;;;;;;;52.23;24.07;;;;;;;1.41;100.00;151729.16;5007276;28;20484;-86
2023/02/06 01:57:45;;;;;;;48.43;23.87;;;;;;;1.41;100.00;151730.47;4991276;28;20514;-86
2023/02/06 02:00:13;;;;;;;131.57;33.33;;;;;;;1.45;100.00;151739.47;4997777;28;20458;-86
2023/02/06 02:02:44;;;;;;;66.87;26.20;;;;;;;1.43;100.00;151734.34;4972501;28;20455;-86
2023/02/06 02:05:11;;;;;;;64.43;27.63;;;;;;;1.38;100.00;151721.50;4994254;28;20431;-86
2023/02/06 02:07:42;;;;;;;48.97;26.00;;;;;;;1.36;100.00;151716.31;4989762;28;20891;-86
2023/02/06 02:10:09;;;;;;;68.77;26.20;;;;;;;1.36;100.00;151716.31;4979031;28;20999;-86
2023/02/06 02:12:36;;;;;;;52.20;23.00;;;;;;;1.38;100.00;151721.50;4985710;28;20474;-86
2023/02/06 02:15:04;;;;;;;58.77;26.00;;;;;;;1.40;100.00;151726.63;5003437;28;20446;-86
2023/02/06 02:17:36;;;;;;;224.57;39.63;;;;;;;1.41;100.00;151730.47;4974195;28;20450;-87
2023/02/06 02:20:28;;;;;;;58.17;28.77;;;;;;;1.36;100.00;151717.63;4967240;28;20569;-86
2023/02/06 02:23:06;;;;;;;82.33;29.37;;;;;;;1.35;100.00;151713.78;4989834;28;20538;-86
2023/02/06 02:26:14;;;;;;;201.17;39.03;;;;;;;1.32;100.00;151706.06;4985152;28;20478;-86
2023/02/06 02:29:22;;;;;;;56.67;28.37;;;;;;;1.34;100.00;151711.19;4976177;28;20484;-86
2023/02/06 02:32:10;;;;;;;41.93;23.90;;;;;;;1.31;100.00;151703.50;4981981;28;20447;-86
2023/02/06 02:35:00;;;;;;;55.37;26.73;;;;;;;1.37;100.00;151718.91;4983147;28;20444;-86
2023/02/06 02:37:32;;;;;;;39.77;24.37;;;;;;;1.40;100.00;151726.63;4984185;28;20467;-86
2023/02/06 02:40:03;;;;;;;37.93;22.77;;;;;;;1.40;100.00;151726.63;4956577;28;20456;-86
2023/02/06 02:42:37;;;;;;;56.03;26.87;;;;;;;1.41;100.00;151729.16;4975974;28;20454;-87
2023/02/06 02:45:07;;;;;;;46.60;23.63;;;;;;;1.36;100.00;151716.31;4992910;28;20542;-86
2023/02/06 02:47:42;;;;;;;52.10;25.03;;;;;;;1.37;100.00;151718.91;4989011;28;20907;-86
2023/02/06 02:50:11;;;;;;;37.87;24.43;;;;;;;1.38;100.00;151722.75;4975844;28;20488;-86
2023/02/06 02:52:38;;;;;;;40.67;22.50;;;;;;;1.33;100.00;151709.91;4993267;28;20465;-86
2023/02/06 02:55:15;;;;;;;52.40;24.40;;;;;;;1.36;100.00;151717.63;4958538;28;20549;-86
2023/02/06 02:57:43;;;;;;;49.83;25.13;;;;;;;1.38;100.00;151721.50;4963628;28;20459;-87
2023/02/06 03:00:10;;;;;;;41.00;24.10;;;;;;;1.32;100.00;151706.06;4955345;28;20543;-86
2023/02/06 03:02:38;;;;;;;49.77;25.87;;;;;;;1.34;100.00;151711.19;4972426;28;20869;-86
2023/02/06 03:05:07;;;;;;;42.87;24.77;;;;;;;1.34;100.00;151712.50;4974720;28;20543;-86
2023/02/06 03:07:40;;;;;;;37.70;22.80;;;;;;;1.31;100.00;151703.50;4976496;28;20480;-87
2023/02/06 03:10:13;;;;;;;43.83;23.53;;;;;;;1.29;100.00;151698.38;4993629;28;20461;-86
2023/02/06 03:12:44;;;;;;;38.20;22.57;;;;;;;1.30;100.00;151702.19;4975537;28;20502;-86
2023/02/06 03:15:20;;;;;;;41.50;24.37;;;;;;;1.30;100.00;151700.94;4982491;28;20493;-86
2023/02/06 03:17:51;;;;;;;42.53;25.17;;;;;;;1.26;100.00;151690.66;4970927;28;20454;-85
2023/02/06 03:20:19;;;;;;;42.93;24.53;;;;;;;1.26;100.00;151691.94;4959388;28;20467;-86
2023/02/06 03:22:49;;;;;;;39.80;23.50;;;;;;;1.30;100.00;151700.94;4983425;28;20469;-86
2023/02/06 03:25:20;;;;;;;40.17;24.97;;;;;;;1.30;100.00;151700.94;4993063;28;20541;-86
2023/02/06 03:27:47;;;;;;;46.00;25.70;;;;;;;1.27;100.00;151693.22;4999007;28;20992;-86
2023/02/06 03:30:17;;;;;;;80.50;29.50;;;;;;;1.27;100.00;151693.22;4974540;28;20545;-86
2023/02/06 03:32:46;;;;;;;48.07;25.67;;;;;;;1.29;100.00;151698.38;4991530;28;20454;-86
2023/02/06 03:35:17;;;;;;;64.80;25.80;;;;;;;1.29;100.00;151698.38;4987405;28;20490;-86
2023/02/06 03:37:44;;;;;;;48.87;25.97;;;;;;;1.27;100.00;151694.53;4979128;28;20516;-86
2023/02/06 03:40:14;;;;;;;44.03;24.13;;;;;;;1.21;100.00;151680.41;4990958;28;20499;-86
2023/02/06 03:42:45;;;;;;;52.90;25.50;;;;;;;1.20;100.00;151677.81;5000651;28;20542;-86
2023/02/06 03:45:16;;;;;;;45.60;26.70;;;;;;;1.18;100.00;151672.69;4976913;28;20554;-86
2023/02/06 03:47:44;;;;;;;47.70;26.13;;;;;;;1.16;100.00;151667.56;4985406;28;20558;-86
2023/02/06 03:50:12;;;;;;;41.80;24.50;;;;;;;1.26;100.00;151690.66;4973517;28;20802;-85
2023/02/06 03:52:41;;;;;;;58.83;25.63;;;;;;;1.17;100.00;151670.09;4990926;28;20457;-86
2023/02/06 03:55:10;;;;;;;43.80;24.10;;;;;;;1.18;100.00;151671.38;4995352;28;20475;-86
2023/02/06 03:57:39;;;;;;;44.30;25.60;;;;;;;1.21;100.00;151679.09;4993295;28;20455;-86
2023/02/06 04:00:06;;;;;;;40.73;24.53;;;;;;;1.18;100.00;151672.69;5009910;28;20435;-86
2023/02/06 04:02:39;;;;;;;49.47;26.07;;;;;;;1.15;100.00;151663.66;4996914;28;20541;-85
2023/02/06 04:05:06;;;;;;;48.20;25.40;;;;;;;1.18;100.00;151671.38;4969079;28;20863;-86
2023/02/06 04:07:35;;;;;;;45.30;24.90;;;;;;;1.18;100.00;151671.38;4958491;28;20461;-86
2023/02/06 04:10:02;;;;;;;44.00;26.23;;;;;;;1.19;100.00;151673.97;4973921;28;20505;-86
2023/02/06 04:12:29;;;;;;;43.87;27.17;;;;;;;1.24;100.00;151688.06;4990846;28;20450;-86
2023/02/06 04:14:57;;;;;;;38.90;24.27;;;;;;;1.20;100.00;151676.50;4989361;28;21002;-86
2023/02/06 04:17:23;;;;;;;41.20;25.43;;;;;;;1.22;100.00;151682.94;4990614;28;20807;-86
2023/02/06 04:19:50;;;;;;;39.57;23.10;;;;;;;1.20;100.00;151677.81;4997206;28;20471;-86
2023/02/06 04:22:17;;;;;;;40.33;24.77;;;;;;;1.12;100.00;151657.25;4966410;28;20553;-86
2023/02/06 04:24:44;;;;;;;44.97;26.40;;;;;;;1.18;100.00;151672.69;4996753;28;20493;-86
2023/02/06 04:27:13;;;;;;;45.23;29.10;;;;;;;1.17;100.00;151670.09;4990398;28;20456;-86
2023/02/06 04:29:39;;;;;;;36.20;25.70;;;;;;;1.13;100.00;151659.84;4971893;28;20763;-86
2023/02/06 04:32:08;;;;;;;44.53;26.87;;;;;;;1.08;100.00;151647.00;4997962;28;20433;-86
2023/02/06 04:34:35;;;;;;;36.57;25.00;;;;;;;1.11;100.00;151654.66;4973027;28;20449;-86
2023/02/06 04:37:02;;;;;;;49.53;27.70;;;;;;;1.03;100.00;151634.09;4977548;28;20454;-86
2023/02/06 04:39:29;;;;;;;43.93;26.00;;;;;;;1.05;100.00;151639.28;4992896;28;20480;-86
2023/02/06 04:41:56;;;;;;;45.70;26.97;;;;;;;1.04;100.00;151636.69;4990841;28;20446;-86
2023/02/06 04:44:23;;;;;;;45.80;26.47;;;;;;;1.03;100.00;151634.09;4974904;28;20787;-87
2023/02/06 04:46:50;;;;;;;49.17;28.73;;;;;;;1.04;100.00;151636.69;4969335;28;20443;-86
2023/02/06 04:49:18;;;;;;;40.87;26.97;;;;;;;1.09;100.00;151648.25;4972967;28;20496;-86
2023/02/06 04:51:45;;;;;;;41.87;24.47;;;;;;;1.01;100.00;151628.97;4992178;28;20463;-86
2023/02/06 04:54:13;;;;;;;52.83;29.20;;;;;;;1.09;100.00;151648.25;4988483;28;20463;-86
2023/02/06 04:56:40;;;;;;;41.23;27.03;;;;;;;1.11;100.00;151653.41;4991885;28;20434;-87
2023/02/06 04:59:06;;;;;;;44.37;28.60;;;;;;;1.04;100.00;151636.69;4991557;28;20489;-86
2023/02/06 05:01:33;;;;;;;45.70;27.07;;;;;;;0.99;100.00;151623.84;4987016;28;20548;-86
2023/02/06 05:03:59;;;;;;;46.07;27.73;;;;;;;1.00;100.00;151626.44;4992049;28;20567;-87
2023/02/06 05:06:28;;;;;;;47.60;28.40;;;;;;;1.04;100.00;151636.69;4974672;28;20440;-86
2023/02/06 05:08:55;;;;;;;39.47;26.40;;;;;;;0.93;100.00;151608.44;4990710;28;20478;-87
2023/02/06 05:11:22;;;;;;;47.57;28.50;;;;;;;0.95;100.00;151613.59;4984114;28;20557;-86
2023/02/06 05:13:48;;;;;;;42.33;28.30;;;;;;;0.97;100.00;151618.72;4984769;28;20545;-86
2023/02/06 05:16:16;;;;;;;44.00;28.80;;;;;;;0.98;100.00;151621.28;4976180;28;20439;-87
2023/02/06 05:18:44;;;;;;;42.00;26.53;;;;;;;0.95;100.00;151612.31;4991241;28;20587;-86
2023/02/06 05:21:11;;;;;;;38.17;24.97;;;;;;;0.95;100.00;151612.31;4985892;28;20466;-86
2023/02/06 05:23:40;;;;;;;43.77;27.17;;;;;;;0.91;100.00;151603.31;4952690;28;20471;-87
2023/02/06 05:26:07;;;;;;;42.70;26.60;;;;;;;0.95;100.00;151613.59;4992492;28;20536;-86
2023/02/06 05:28:33;;;;;;;40.40;26.13;;;;;;;0.97;100.00;151617.44;4985194;28;20485;-86
2023/02/06 05:31:00;;;;;;;38.27;23.77;;;;;;;0.96;100.00;151616.16;4966666;28;20487;-86
2023/02/06 05:33:27;;;;;;;46.40;27.40;;;;;;;0.93;100.00;151607.13;4960969;28;20538;-87
2023/02/06 05:35:54;;;;;;;40.00;25.07;;;;;;;0.94;100.00;151611.03;5004450;28;20611;-86
2023/02/06 05:38:20;;;;;;;33.87;23.00;;;;;;;0.99;100.00;151623.84;4952678;28;20851;-86
2023/02/06 05:40:51;;;;;;;36.93;24.80;;;;;;;0.92;100.00;151605.91;4962699;28;20461;-86
2023/02/06 05:43:18;;;;;;;35.40;24.17;;;;;;;0.90;100.00;151599.47;4993881;28;20449;-86
2023/02/06 05:45:45;;;;;;;42.23;25.13;;;;;;;0.92;100.00;151604.59;4992931;28;20466;-86
2023/02/06 05:48:11;;;;;;;37.57;24.40;;;;;;;0.93;100.00;151607.13;4967977;28;20814;-87
2023/02/06 05:50:38;;;;;;;37.23;23.67;;;;;;;0.91;100.00;151602.00;4946766;28;20456;-87
2023/02/06 05:53:14;;;;;;;37.77;22.87;;;;;;;0.92;100.00;151605.91;5002865;28;20489;-87
2023/02/06 05:55:41;;;;;;;39.07;24.07;;;;;;;0.94;100.00;151611.03;4980130;28;20457;-87
2023/02/06 05:58:09;;;;;;;38.70;25.20;;;;;;;0.92;100.00;151604.59;4965897;28;20445;-87
2023/02/06 06:00:36;;;;;;;37.33;24.00;;;;;;;0.90;100.00;151600.72;4979192;28;20510;-87
2023/02/06 06:03:02;;;;;;;39.17;25.37;;;;;;;0.94;100.00;151611.03;4996262;28;20446;-87
2023/02/06 06:05:29;;;;;;;36.97;25.60;;;;;;;0.91;100.00;151603.31;4962069;28;20542;-87
2023/02/06 06:07:56;;;;;;;39.50;25.40;;;;;;;0.90;100.00;151599.47;4962998;28;20476;-87
2023/02/06 06:10:23;;;;;;;36.07;22.83;;;;;;;0.86;100.00;151590.47;4989845;28;20514;-87
2023/02/06 06:12:50;;;;;;;35.13;24.40;;;;;;;0.87;100.00;151593.06;4984744;28;20550;-87
2023/02/06 06:15:18;;;;;;;38.27;24.00;;;;;;;0.87;100.00;151591.75;4972585;28;20633;-87
2023/02/06 06:17:45;;;;;;;36.83;24.57;;;;;;;0.89;100.00;151598.19;4971307;28;20562;-87
2023/02/06 06:20:12;;;;;;;38.57;24.90;;;;;;;0.88;100.00;151595.59;4991550;28;20445;-87
2023/02/06 06:22:38;;;;;;;35.47;22.97;;;;;;;0.92;100.00;151604.59;4988538;28;20453;-87
2023/02/06 06:25:06;;;;;;;38.80;25.13;;;;;;;0.92;100.00;151605.91;5006873;28;20482;-86
2023/02/06 06:27:33;;;;;;;38.23;25.27;;;;;;;0.93;100.00;151608.44;4973870;28;20849;-87
2023/02/06 06:29:59;;;;;;;34.10;23.90;;;;;;;0.88;100.00;151595.59;4975211;28;20477;-87
2023/02/06 06:32:27;;;;;;;35.90;23.47;;;;;;;0.91;100.00;151602.00;4990690;28;20453;-87
2023/02/06 06:34:54;;;;;;;32.40;22.10;;;;;;;0.87;100.00;151593.06;4990969;28;20446;-87
2023/02/06 06:37:21;;;;;;;34.97;23.40;;;;;;;0.86;100.00;151590.47;4988926;28;20513;-88
2023/02/06 06:39:47;;;;;;;39.27;25.40;;;;;;;0.86;100.00;151590.47;4988105;28;20471;-87
2023/02/06 06:42:14;;;;;;;36.10;22.80;;;;;;;0.81;100.00;151576.34;4989020;28;20454;-88
2023/02/06 06:44:41;;;;;;;34.40;22.80;;;;;;;0.83;100.00;151582.75;4990561;28;20451;-88
2023/02/06 06:47:09;;;;;;;32.23;20.80;;;;;;;0.81;100.00;151577.63;4989331;28;20519;-88
2023/02/06 06:49:37;;;;;;;37.50;24.60;;;;;;;0.81;100.00;151577.63;4988179;28;20581;-88
2023/02/06 06:52:04;;;;;;;36.60;23.63;;;;;;;0.85;100.00;151587.88;4988511;28;20464;-87
2023/02/06 06:54:31;;;;;;;33.50;22.40;;;;;;;0.92;100.00;151605.91;4990028;28;20455;-87
2023/02/06 06:56:58;;;;;;;30.10;21.50;;;;;;;0.84;100.00;151585.34;4971652;28;20530;-88
2023/02/06 06:59:24;;;;;;;32.03;22.13;;;;;;;0.80;100.00;151575.03;4989231;28;20821;-88
2023/02/06 07:01:51;;;;;;;31.13;21.60;;;;;;;0.82;100.00;151578.94;4970850;28;20465;-88
2023/02/06 07:04:18;;;;;;;37.80;22.77;;;;;;;0.81;100.00;151577.63;4986285;28;20453;-87
2023/02/06 07:06:46;;;;;;;33.57;21.23;;;;;;;0.80;100.00;151575.03;4972976;28;20514;-88
2023/02/06 07:09:13;;;;;;;30.37;20.80;;;;;;;0.78;100.00;151569.91;4989815;28;20492;-88
2023/02/06 07:11:39;;;;;;;34.20;23.50;;;;;;;0.81;100.00;151577.63;4989982;28;20493;-88
2023/02/06 07:14:06;;;;;;;30.20;20.20;;;;;;;0.79;100.00;151572.50;4988390;28;20494;-88
2023/02/06 07:16:33;;;;;;;32.10;22.27;;;;;;;0.81;100.00;151576.34;4989749;28;20449;-88
2023/02/06 07:18:59;;;;;;;32.93;21.23;;;;;;;0.75;100.00;151560.91;4986184;28;20518;-88
2023/02/06 07:21:26;;;;;;;29.87;21.00;;;;;;;0.75;100.00;151562.22;4969911;28;20476;-88
2023/02/06 07:23:54;;;;;;;29.37;21.30;;;;;;;0.77;100.00;151567.34;4985617;28;20457;-88
2023/02/06 07:26:21;;;;;;;32.30;21.77;;;;;;;0.78;100.00;151569.91;4985859;28;20456;-88
2023/02/06 07:28:48;;;;;;;33.43;20.83;;;;;;;0.79;100.00;151571.22;4986879;28;20462;-88
2023/02/06 07:31:15;;;;;;;30.43;19.37;;;;;;;0.81;100.00;151577.63;4971968;28;21031;-88
2023/02/06 07:33:42;;;;;;;33.60;22.63;;;;;;;0.86;100.00;151590.47;4970674;28;20459;-88
2023/02/06 07:36:10;;;;;;;35.93;21.00;;;;;;;0.80;100.00;151575.03;4970700;28;20450;-88
2023/02/06 07:38:37;;;;;;;28.50;20.13;;;;;;;0.79;100.00;151571.22;4971105;28;20462;-88
2023/02/06 07:41:05;;;;;;;29.63;20.50;;;;;;;0.81;100.00;151577.63;4954361;28;20516;-88
2023/02/06 07:43:33;;;;;;;28.57;20.30;;;;;;;0.81;100.00;151576.34;4950892;28;20464;-88
2023/02/06 07:46:00;;;;;;;27.40;20.20;;;;;;;0.83;100.00;151581.47;4984933;28;21031;-88
2023/02/06 07:48:27;;;;;;;27.87;20.47;;;;;;;0.81;100.00;151577.63;4971742;28;21054;-88
2023/02/06 07:50:54;;;;;;;27.90;20.50;;;;;;;0.77;100.00;151567.34;4971132;28;20486;-88
2023/02/06 07:53:21;;;;;;;28.60;19.30;;;;;;;0.76;100.00;151564.81;4952156;28;20478;-88
2023/02/06 07:55:48;;;;;;;30.00;19.17;;;;;;;0.81;100.00;151576.34;4984913;28;20448;-88
2023/02/06 07:58:16;;;;;;;26.57;17.93;;;;;;;0.79;100.00;151572.50;4971819;28;20945;-88
2023/02/06 08:00:42;;;;;;;25.90;19.80;;;;;;;0.80;100.00;151575.03;4969471;28;20436;-88
2023/02/06 08:03:11;;;;;;;28.13;19.30;;;;;;;0.79;100.00;151572.50;4949187;28;20547;-88
2023/02/06 08:05:38;;;;;;;30.07;19.37;;;;;;;0.76;100.00;151564.81;4968813;28;20452;-88
2023/02/06 08:08:05;;;;;;;28.90;21.30;;;;;;;0.85;100.00;151586.63;4984563;28;21839;-88
2023/02/06 08:10:32;;;;;;;27.50;18.97;;;;;;;0.78;100.00;151569.91;4969598;28;20481;-88
2023/02/06 08:12:58;;;;;;;29.50;19.80;;;;;;;0.80;100.00;151575.03;4983171;28;20478;-88
2023/02/06 08:15:26;;;;;;;24.30;17.20;;;;;;;0.77;100.00;151567.34;4968304;28;20467;-88
2023/02/06 08:17:53;;;;;;;26.17;18.13;;;;;;;0.85;100.00;151586.63;4986946;28;20465;-87
2023/02/06 08:20:20;;;;;;;27.50;18.90;;;;;;;0.84;100.00;151584.06;4987097;28;20448;-88
2023/02/06 08:22:46;;;;;;;25.73;17.53;;;;;;;0.80;100.00;151573.75;4987688;28;20499;-87
2023/02/06 08:25:13;;;;;;;24.40;17.70;;;;;;;0.85;100.00;151586.63;4987818;28;20490;-88
2023/02/06 08:27:40;;;;;;;30.50;19.03;;;;;;;0.84;100.00;151585.34;4988055;28;20531;-88
2023/02/06 08:30:07;;;;;;;32.03;18.27;;;;;;;0.80;100.00;151575.03;4987488;28;20472;-88
2023/02/06 08:32:35;;;;;;;26.93;18.10;;;;;;;0.86;100.00;151589.19;4981281;28;20467;-88
2023/02/06 08:35:02;;;;;;;25.83;17.90;;;;;;;0.84;100.00;151585.34;4990379;28;20525;-88
2023/02/06 08:38:07;;;;;;;28.73;16.43;;;;;;;0.76;100.00;151564.81;4989074;28;20857;-88
2023/02/06 08:41:17;;;;;;;24.03;17.30;;;;;;;0.78;100.00;151569.91;4989542;28;20464;-88
2023/02/06 08:44:22;;;;;;;26.10;15.20;;;;;;;0.75;100.00;151562.22;4989487;28;20455;-88
2023/02/06 08:47:26;;;;;;;21.43;16.07;;;;;;;0.76;100.00;151564.81;4989523;28;20584;-88
2023/02/06 08:50:32;;;;;;;22.77;15.33;;;;;;;0.80;100.00;151575.03;4990661;28;20560;-88
2023/02/06 08:53:36;;;;;;;23.37;14.97;;;;;;;0.84;100.00;151585.34;4991962;28;20527;-88
2023/02/06 08:56:40;;;;;;;21.20;14.80;;;;;;;0.84;100.00;151585.34;4986661;28;20500;-88
2023/02/06 08:59:07;;;;;;;21.47;15.37;;;;;;;0.84;100.00;151584.06;4990800;28;20844;-88
2023/02/06 09:01:36;;;;;;;18.43;13.70;;;;;;;0.89;100.00;151598.19;4988552;28;20447;-88
2023/02/06 09:04:05;;;;;;;23.87;14.60;;;;;;;0.87;100.00;151593.06;4991570;28;20460;-88
2023/02/06 09:06:34;;;;;;;20.00;13.50;;;;;;;0.82;100.00;151580.16;4990414;28;20450;-88
2023/02/06 09:09:01;;;;;;;17.60;12.50;;;;;;;0.83;100.00;151582.75;4991832;28;20580;-88
2023/02/06 09:11:28;;;;;;;18.53;12.20;;;;;;;0.82;100.00;151578.94;4992493;28;20474;-88
2023/02/06 09:13:57;;;;;;;15.63;12.27;;;;;;;0.79;100.00;151572.50;4991357;28;20459;-88
2023/02/06 09:16:25;;;;;;;16.83;12.07;;;;;;;0.79;100.00;151572.50;4972209;28;21189;-88
2023/02/06 09:18:52;;;;;;;14.70;11.13;;;;;;;0.80;100.00;151573.75;4988150;28;20597;-88
2023/02/06 09:21:22;;;;;;;14.40;10.53;;;;;;;0.74;100.00;151559.66;4986365;28;20456;-88
2023/02/06 09:23:51;;;;;;;18.70;11.60;;;;;;;0.79;100.00;151571.22;4969293;28;20465;-88
2023/02/06 09:26:20;;;;;;;16.67;11.87;;;;;;;0.83;100.00;151582.75;4972049;28;20451;-88
2023/02/06 09:28:47;;;;;;;15.10;11.10;;;;;;;0.77;100.00;151566.09;4986579;28;20789;-88
2023/02/06 09:31:13;;;;;;;15.43;11.10;;;;;;;0.79;100.00;151571.22;4987498;28;20481;-88
2023/02/06 09:33:40;;;;;;;18.53;10.87;;;;;;;0.79;100.00;151572.50;4971132;28;20545;-88
2023/02/06 09:36:09;;;;;;;18.13;11.50;;;;;;;0.77;100.00;151567.34;4981784;28;20868;-88
2023/02/06 09:38:38;;;;;;;17.90;11.80;;;;;;;0.77;100.00;151566.09;4988527;28;20453;-88
2023/02/06 09:41:13;;;;;;;14.97;11.30;;;;;;;0.71;100.00;151550.66;4972842;28;20455;-88
2023/02/06 09:43:42;;;;;;;18.60;12.27;;;;;;;0.72;100.00;151554.50;4970637;28;20872;-88
2023/02/06 09:46:13;;;;;;;16.00;11.07;;;;;;;0.82;100.00;151580.16;4987390;28;20450;-88
2023/02/06 09:48:42;;;;;;;20.93;11.60;;;;;;;0.79;100.00;151572.50;4973365;28;20489;-88
2023/02/06 09:51:15;;;;;;;16.73;11.00;;;;;;;0.84;100.00;151585.34;4976086;28;20546;-87
2023/02/06 09:53:48;;;;;;;17.23;12.10;;;;;;;0.86;100.00;151590.47;4976424;28;20456;-88
2023/02/06 09:56:21;;;;;;;15.30;10.87;;;;;;;0.85;100.00;151587.88;4975830;28;21295;-88
2023/02/06 09:58:53;;;;;;;16.70;11.67;;;;;;;0.87;100.00;151593.06;4970398;28;20491;-89
2023/02/06 10:01:24;;;;;;;17.97;10.60;;;;;;;0.88;100.00;151594.31;4986463;28;20450;-88
2023/02/06 10:04:04;;;;;;;19.20;11.27;;;;;;;0.91;100.00;151603.31;4976185;28;20508;-88
2023/02/06 10:06:35;;;;;;;15.50;10.70;;;;;;;0.87;100.00;151591.75;4985389;28;20513;-89
2023/02/06 10:09:05;;;;;;;14.50;10.53;;;;;;;0.91;100.00;151603.31;4986262;28;21003;-89
2023/02/06 10:11:40;;;;;;;17.27;10.73;;;;;;;0.93;100.00;151607.13;4972457;28;20854;-89
2023/02/06 10:14:10;;;;;;;13.67;9.40;;;;;;;0.93;100.00;151608.44;4971188;28;20787;-88
2023/02/06 10:16:40;;;;;;;14.07;10.77;;;;;;;0.97;100.00;151618.72;4987513;28;20535;-89
2023/02/06 10:19:14;;;;;;;14.43;9.87;;;;;;;1.06;100.00;151641.81;4988559;28;20545;-88
2023/02/06 10:21:46;;;;;;;14.97;9.97;;;;;;;1.09;100.00;151649.53;4990275;28;20497;-89
2023/02/06 10:24:17;;;;;;;16.40;10.50;;;;;;;1.07;100.00;151644.41;4989144;28;20532;-89
2023/02/06 10:26:47;;;;;;;13.43;9.00;;;;;;;1.04;100.00;151636.69;4990813;28;20460;-89
2023/02/06 10:29:18;;;;;;;11.63;8.73;;;;;;;1.09;100.00;151648.25;4989314;28;20864;-89
2023/02/06 10:31:55;;;;;;;16.10;9.50;;;;;;;1.09;100.00;151649.53;4990764;28;20480;-89
2023/02/06 10:34:31;;;;;;;14.30;10.20;;;;;;;1.12;100.00;151657.25;4981484;28;20462;-89
2023/02/06 10:37:09;;;;;;;13.53;10.00;;;;;;;1.16;100.00;151667.56;4989477;28;20542;-89
2023/02/06 10:40:00;;;;;;;17.67;10.67;;;;;;;1.14;100.00;151662.38;4989437;28;20442;-89
2023/02/06 10:42:39;;;;;;;12.57;8.80;;;;;;;1.14;100.00;151661.09;4988401;28;20456;-89
2023/02/06 10:45:11;;;;;;;10.40;7.37;;;;;;;1.15;100.00;151664.97;4988659;28;20802;-89
2023/02/06 10:47:41;;;;;;;11.53;8.33;;;;;;;1.23;100.00;151685.53;4988790;28;20965;-89
2023/02/06 10:50:18;;;;;;;11.53;8.07;;;;;;;1.15;100.00;151663.66;4992086;28;20500;-89
2023/02/06 10:52:45;;;;;;;10.70;7.00;;;;;;;1.09;100.00;151649.53;4992364;28;20464;-89
2023/02/06 10:55:17;;;;;;;8.27;6.30;;;;;;;1.08;100.00;151647.00;4990092;28;20462;-88
2023/02/06 10:57:47;;;;;;;8.37;6.50;;;;;;;1.10;100.00;151652.13;4990203;28;20576;-89
2023/02/06 11:00:20;;;;;;;12.70;7.50;;;;;;;1.16;100.00;151667.56;4987873;28;20462;-89
2023/02/06 11:02:54;;;;;;;9.50;6.70;;;;;;;1.16;100.00;151667.56;4990199;28;20458;-88
2023/02/06 11:05:23;;;;;;;7.10;5.40;;;;;;;1.18;100.00;151671.38;4990041;28;20785;-89
2023/02/06 11:07:52;;;;;;;7.57;5.60;;;;;;;1.11;100.00;151654.66;4991508;28;20553;-88
2023/02/06 11:10:20;;;;;;;9.73;6.13;;;;;;;1.11;100.00;151654.66;4989436;28;20475;-89
2023/02/06 11:12:51;;;;;;;7.13;4.93;;;;;;;1.11;100.00;151653.41;4989319;28;20475;-89
2023/02/06 11:15:22;;;;;;;6.30;4.80;;;;;;;1.10;99.15;151652.13;4991626;28;20456;-89
2023/02/06 11:17:49;;;;;;;6.23;4.70;;;;;;;1.09;99.64;151649.53;4989808;28;20448;-88
2023/02/06 11:20:20;;;;;;;8.13;4.50;;;;;;;1.02;99.73;151630.28;4971865;28;20445;-89
2023/02/06 11:22:47;;;;;;;6.97;5.20;;;;;;;1.04;100.00;151635.41;4986850;28;20600;-89